sensor_id;sensor_type;location;lat;lon;timestamp;temperature;humidity
13496;DHT22;6820;49.374;8.452;2023-08-30T00:02:11;17.74;99.99
13496;DHT22;6820;49.374;8.452;2023-08-30T00:06:13;17.73;99.99
13496;DHT22;6820;49.374;8.452;2023-08-30T00:10:14;17.74;99.99
13496;DHT22;6820;49.374;8.452;2023-08-30T00:14:16;17.74;99.99
13496;DHT22;6820;49.374;8.452;2023-08-30T00:18:18;17.74;99.99
13496;DHT22;6820;49.374;8.452;2023-08-30T00:22:20;17.73;99.99
13496;DHT22;6820;49.374;8.452;2023-08-30T00:26:23;17.76;99.99
13496;DHT22;6820;49.374;8.452;2023-08-30T00:30:25;17.76;99.99
13496;DHT22;6820;49.374;8.452;2023-08-30T00:34:27;17.77;99.99
13496;DHT22;6820;49.374;8.452;2023-08-30T00:38:29;17.77;99.99
13496;DHT22;6820;49.374;8.452;2023-08-30T00:42:30;17.77;99.99
13496;DHT22;6820;49.374;8.452;2023-08-30T00:46:32;17.77;99.99
13496;DHT22;6820;49.374;8.452;2023-08-30T00:50:34;17.77;99.99
13496;DHT22;6820;49.374;8.452;2023-08-30T00:54:37;17.74;99.99
13496;DHT22;6820;49.374;8.452;2023-08-30T00:58:39;17.73;99.99
13496;DHT22;6820;49.374;8.452;2023-08-30T01:02:41;17.74;99.99
13496;DHT22;6820;49.374;8.452;2023-08-30T01:06:42;17.71;99.99
13496;DHT22;6820;49.374;8.452;2023-08-30T01:10:57;17.71;99.99
13496;DHT22;6820;49.374;8.452;2023-08-30T01:15:11;17.70;99.99
13496;DHT22;6820;49.374;8.452;2023-08-30T01:27:51;17.68;99.99
13496;DHT22;6820;49.374;8.452;2023-08-30T01:31:53;17.65;99.99
13496;DHT22;6820;49.374;8.452;2023-08-30T01:35:58;17.66;99.99
13496;DHT22;6820;49.374;8.452;2023-08-30T01:40:01;17.63;99.99
13496;DHT22;6820;49.374;8.452;2023-08-30T01:44:06;17.51;99.99
13496;DHT22;6820;49.374;8.452;2023-08-30T01:48:10;17.60;99.99
13496;DHT22;6820;49.374;8.452;2023-08-30T01:52:13;17.58;99.99
13496;DHT22;6820;49.374;8.452;2023-08-30T01:56:18;17.58;99.99
13496;DHT22;6820;49.374;8.452;2023-08-30T02:00:23;17.53;99.99
13496;DHT22;6820;49.374;8.452;2023-08-30T02:04:24;17.53;99.99
13496;DHT22;6820;49.374;8.452;2023-08-30T02:08:26;17.49;99.99
13496;DHT22;6820;49.374;8.452;2023-08-30T02:12:39;17.51;99.99
13496;DHT22;6820;49.374;8.452;2023-08-30T02:16:54;17.51;99.99
13496;DHT22;6820;49.374;8.452;2023-08-30T02:20:56;17.47;99.99
13496;DHT22;6820;49.374;8.452;2023-08-30T02:24:59;17.46;99.99
13496;DHT22;6820;49.374;8.452;2023-08-30T02:29:02;17.49;99.99
13496;DHT22;6820;49.374;8.452;2023-08-30T02:33:04;17.47;99.99
13496;DHT22;6820;49.374;8.452;2023-08-30T02:37:06;17.46;99.99
13496;DHT22;6820;49.374;8.452;2023-08-30T02:41:08;17.42;99.99
13496;DHT22;6820;49.374;8.452;2023-08-30T02:45:11;17.40;99.99
13496;DHT22;6820;49.374;8.452;2023-08-30T02:49:13;17.39;99.99
13496;DHT22;6820;49.374;8.452;2023-08-30T02:53:14;17.38;99.99
13496;DHT22;6820;49.374;8.452;2023-08-30T02:57:16;17.36;99.99
13496;DHT22;6820;49.374;8.452;2023-08-30T03:01:18;17.36;99.99
13496;DHT22;6820;49.374;8.452;2023-08-30T03:05:21;17.33;99.99
13496;DHT22;6820;49.374;8.452;2023-08-30T03:09:24;17.32;99.99
13496;DHT22;6820;49.374;8.452;2023-08-30T03:13:25;17.27;99.99
13496;DHT22;6820;49.374;8.452;2023-08-30T03:17:27;17.25;99.99
13496;DHT22;6820;49.374;8.452;2023-08-30T03:21:33;17.25;99.99
13496;DHT22;6820;49.374;8.452;2023-08-30T03:25:35;17.27;99.99
13496;DHT22;6820;49.374;8.452;2023-08-30T03:29:37;17.24;99.99
13496;DHT22;6820;49.374;8.452;2023-08-30T03:33:39;17.24;99.99
13496;DHT22;6820;49.374;8.452;2023-08-30T03:37:46;17.22;99.99
13496;DHT22;6820;49.374;8.452;2023-08-30T03:41:47;17.25;99.99
13496;DHT22;6820;49.374;8.452;2023-08-30T03:45:49;17.22;99.99
13496;DHT22;6820;49.374;8.452;2023-08-30T03:49:52;17.21;99.99
13496;DHT22;6820;49.374;8.452;2023-08-30T03:53:53;17.21;99.99
13496;DHT22;6820;49.374;8.452;2023-08-30T03:57:57;17.20;99.99
13496;DHT22;6820;49.374;8.452;2023-08-30T04:01:59;17.14;99.99
13496;DHT22;6820;49.374;8.452;2023-08-30T04:06:02;17.14;99.99
13496;DHT22;6820;49.374;8.452;2023-08-30T04:10:03;17.12;99.99
13496;DHT22;6820;49.374;8.452;2023-08-30T04:14:08;17.09;99.99
13496;DHT22;6820;49.374;8.452;2023-08-30T04:18:10;17.06;99.99
13496;DHT22;6820;49.374;8.452;2023-08-30T04:22:12;17.03;99.99
13496;DHT22;6820;49.374;8.452;2023-08-30T04:26:14;16.99;99.99
13496;DHT22;6820;49.374;8.452;2023-08-30T04:30:16;16.96;99.99
13496;DHT22;6820;49.374;8.452;2023-08-30T04:34:18;16.91;99.99
13496;DHT22;6820;49.374;8.452;2023-08-30T04:38:22;16.88;99.99
13496;DHT22;6820;49.374;8.452;2023-08-30T04:42:23;16.88;99.99
13496;DHT22;6820;49.374;8.452;2023-08-30T04:46:26;16.91;99.99
13496;DHT22;6820;49.374;8.452;2023-08-30T04:50:27;16.90;99.99
13496;DHT22;6820;49.374;8.452;2023-08-30T04:54:29;16.90;99.99
13496;DHT22;6820;49.374;8.452;2023-08-30T04:58:31;16.90;99.99
13496;DHT22;6820;49.374;8.452;2023-08-30T05:02:33;16.88;99.99
13496;DHT22;6820;49.374;8.452;2023-08-30T05:06:39;16.90;99.99
13496;DHT22;6820;49.374;8.452;2023-08-30T05:10:41;16.95;99.99
13496;DHT22;6820;49.374;8.452;2023-08-30T05:14:44;16.92;99.99
13496;DHT22;6820;49.374;8.452;2023-08-30T05:18:46;16.90;99.99
13496;DHT22;6820;49.374;8.452;2023-08-30T05:22:49;16.92;99.99
13496;DHT22;6820;49.374;8.452;2023-08-30T05:26:53;16.92;99.99
13496;DHT22;6820;49.374;8.452;2023-08-30T05:30:56;16.92;99.99
13496;DHT22;6820;49.374;8.452;2023-08-30T05:35:03;16.95;99.99
13496;DHT22;6820;49.374;8.452;2023-08-30T05:39:35;16.96;99.99
13496;DHT22;6820;49.374;8.452;2023-08-30T05:43:36;16.98;99.99
13496;DHT22;6820;49.374;8.452;2023-08-30T05:47:39;16.99;99.99
13496;DHT22;6820;49.374;8.452;2023-08-30T05:51:41;17.00;99.99
13496;DHT22;6820;49.374;8.452;2023-08-30T05:55:43;17.03;99.99
13496;DHT22;6820;49.374;8.452;2023-08-30T05:59:44;17.10;99.99
13496;DHT22;6820;49.374;8.452;2023-08-30T06:03:46;17.17;99.99
13496;DHT22;6820;49.374;8.452;2023-08-30T06:07:48;17.20;99.99
13496;DHT22;6820;49.374;8.452;2023-08-30T06:11:50;17.22;99.99
13496;DHT22;6820;49.374;8.452;2023-08-30T06:15:51;17.28;99.99
13496;DHT22;6820;49.374;8.452;2023-08-30T06:19:53;17.38;99.99
13496;DHT22;6820;49.374;8.452;2023-08-30T06:23:55;17.42;99.99
13496;DHT22;6820;49.374;8.452;2023-08-30T06:27:57;17.46;99.99
13496;DHT22;6820;49.374;8.452;2023-08-30T06:32:00;17.46;99.99
13496;DHT22;6820;49.374;8.452;2023-08-30T06:36:02;17.49;99.99
13496;DHT22;6820;49.374;8.452;2023-08-30T06:40:04;17.54;99.99
13496;DHT22;6820;49.374;8.452;2023-08-30T06:44:06;17.54;99.99
13496;DHT22;6820;49.374;8.452;2023-08-30T06:48:08;17.58;99.99
13496;DHT22;6820;49.374;8.452;2023-08-30T06:52:10;17.58;99.99
13496;DHT22;6820;49.374;8.452;2023-08-30T06:56:12;17.63;99.99
13496;DHT22;6820;49.374;8.452;2023-08-30T07:00:14;17.66;99.99
13496;DHT22;6820;49.374;8.452;2023-08-30T07:04:16;17.70;99.99
13496;DHT22;6820;49.374;8.452;2023-08-30T07:08:18;17.74;99.99
13496;DHT22;6820;49.374;8.452;2023-08-30T07:12:20;17.74;99.99
13496;DHT22;6820;49.374;8.452;2023-08-30T07:16:22;17.81;99.99
13496;DHT22;6820;49.374;8.452;2023-08-30T07:20:24;17.89;99.99
13496;DHT22;6820;49.374;8.452;2023-08-30T07:24:28;17.92;99.99
13496;DHT22;6820;49.374;8.452;2023-08-30T07:28:30;17.95;99.99
13496;DHT22;6820;49.374;8.452;2023-08-30T07:32:31;17.95;99.99
13496;DHT22;6820;49.374;8.452;2023-08-30T07:36:33;17.99;99.99
13496;DHT22;6820;49.374;8.452;2023-08-30T07:40:47;18.04;99.99
13496;DHT22;6820;49.374;8.452;2023-08-30T07:44:48;18.13;99.99
13496;DHT22;6820;49.374;8.452;2023-08-30T07:48:50;18.23;99.99
13496;DHT22;6820;49.374;8.452;2023-08-30T07:57:15;18.50;99.99
13496;DHT22;6820;49.374;8.452;2023-08-30T08:01:17;18.64;99.99
13496;DHT22;6820;49.374;8.452;2023-08-30T08:05:18;18.74;99.99
13496;DHT22;6820;49.374;8.452;2023-08-30T08:09:20;18.79;99.99
13496;DHT22;6820;49.374;8.452;2023-08-30T08:13:23;18.87;99.99
13496;DHT22;6820;49.374;8.452;2023-08-30T08:17:25;18.99;99.99
13496;DHT22;6820;49.374;8.452;2023-08-30T08:21:26;19.13;99.99
13496;DHT22;6820;49.374;8.452;2023-08-30T08:25:28;19.27;99.99
13496;DHT22;6820;49.374;8.452;2023-08-30T08:29:30;19.40;99.99
13496;DHT22;6820;49.374;8.452;2023-08-30T08:33:32;19.43;99.99
13496;DHT22;6820;49.374;8.452;2023-08-30T08:37:34;19.39;99.99
13496;DHT22;6820;49.374;8.452;2023-08-30T08:41:40;19.52;99.99
13496;DHT22;6820;49.374;8.452;2023-08-30T08:45:44;19.61;99.99
13496;DHT22;6820;49.374;8.452;2023-08-30T08:49:47;19.80;99.99
13496;DHT22;6820;49.374;8.452;2023-08-30T08:53:48;19.90;99.99
13496;DHT22;6820;49.374;8.452;2023-08-30T08:57:51;19.97;99.99
13496;DHT22;6820;49.374;8.452;2023-08-30T09:01:52;20.17;99.99
13496;DHT22;6820;49.374;8.452;2023-08-30T09:05:54;20.26;99.99
13496;DHT22;6820;49.374;8.452;2023-08-30T09:09:56;20.33;99.99
13496;DHT22;6820;49.374;8.452;2023-08-30T09:13:59;20.44;99.99
13496;DHT22;6820;49.374;8.452;2023-08-30T09:18:00;20.63;99.99
13496;DHT22;6820;49.374;8.452;2023-08-30T09:22:02;20.63;99.99
13496;DHT22;6820;49.374;8.452;2023-08-30T09:26:04;20.57;99.99
13496;DHT22;6820;49.374;8.452;2023-08-30T09:30:07;20.60;99.99
13496;DHT22;6820;49.374;8.452;2023-08-30T09:34:12;20.71;99.99
13496;DHT22;6820;49.374;8.452;2023-08-30T09:38:17;20.79;99.99
13496;DHT22;6820;49.374;8.452;2023-08-30T09:42:19;20.81;99.99
13496;DHT22;6820;49.374;8.452;2023-08-30T09:46:21;20.81;99.99
13496;DHT22;6820;49.374;8.452;2023-08-30T09:50:44;20.76;99.99
13496;DHT22;6820;49.374;8.452;2023-08-30T09:54:48;20.91;99.99
13496;DHT22;6820;49.374;8.452;2023-08-30T09:58:50;21.06;99.99
13496;DHT22;6820;49.374;8.452;2023-08-30T10:02:52;21.22;99.99
13496;DHT22;6820;49.374;8.452;2023-08-30T10:07:14;21.33;99.99
13496;DHT22;6820;49.374;8.452;2023-08-30T10:11:17;21.42;99.99
13496;DHT22;6820;49.374;8.452;2023-08-30T10:15:20;21.59;99.99
13496;DHT22;6820;49.374;8.452;2023-08-30T10:19:24;21.42;99.99
13496;DHT22;6820;49.374;8.452;2023-08-30T10:23:27;21.51;99.99
13496;DHT22;6820;49.374;8.452;2023-08-30T10:27:31;21.56;99.99
13496;DHT22;6820;49.374;8.452;2023-08-30T10:31:34;21.56;99.99
13496;DHT22;6820;49.374;8.452;2023-08-30T10:35:35;21.56;99.99
13496;DHT22;6820;49.374;8.452;2023-08-30T10:39:48;21.73;99.99
13496;DHT22;6820;49.374;8.452;2023-08-30T10:43:51;21.74;99.99
13496;DHT22;6820;49.374;8.452;2023-08-30T10:47:59;21.89;99.99
13496;DHT22;6820;49.374;8.452;2023-08-30T10:52:01;21.94;99.99
13496;DHT22;6820;49.374;8.452;2023-08-30T10:56:09;22.12;99.99
13496;DHT22;6820;49.374;8.452;2023-08-30T11:04:17;22.36;99.99
13496;DHT22;6820;49.374;8.452;2023-08-30T11:08:19;22.45;99.99
13496;DHT22;6820;49.374;8.452;2023-08-30T11:12:21;22.45;99.99
13496;DHT22;6820;49.374;8.452;2023-08-30T11:16:23;22.52;99.99
13496;DHT22;6820;49.374;8.452;2023-08-30T11:20:25;22.59;99.99
13496;DHT22;6820;49.374;8.452;2023-08-30T11:24:26;22.67;99.99
13496;DHT22;6820;49.374;8.452;2023-08-30T11:28:28;22.63;99.99
13496;DHT22;6820;49.374;8.452;2023-08-30T11:32:32;22.64;99.99
13496;DHT22;6820;49.374;8.452;2023-08-30T11:36:35;22.66;99.99
13496;DHT22;6820;49.374;8.452;2023-08-30T11:40:38;22.85;99.99
13496;DHT22;6820;49.374;8.452;2023-08-30T11:44:39;22.99;99.99
13496;DHT22;6820;49.374;8.452;2023-08-30T11:48:41;23.11;99.99
13496;DHT22;6820;49.374;8.452;2023-08-30T11:52:43;23.15;99.99
13496;DHT22;6820;49.374;8.452;2023-08-30T11:56:45;23.14;99.99
13496;DHT22;6820;49.374;8.452;2023-08-30T12:00:49;22.94;99.99
13496;DHT22;6820;49.374;8.452;2023-08-30T12:04:52;23.23;99.99
13496;DHT22;6820;49.374;8.452;2023-08-30T12:08:57;23.37;99.99
13496;DHT22;6820;49.374;8.452;2023-08-30T12:13:00;23.47;99.99
13496;DHT22;6820;49.374;8.452;2023-08-30T12:17:01;23.45;99.99
13496;DHT22;6820;49.374;8.452;2023-08-30T12:21:04;23.79;99.99
13496;DHT22;6820;49.374;8.452;2023-08-30T12:25:19;24.06;99.99
13496;DHT22;6820;49.374;8.452;2023-08-30T12:29:21;24.36;99.99
13496;DHT22;6820;49.374;8.452;2023-08-30T12:33:23;24.45;99.99
13496;DHT22;6820;49.374;8.452;2023-08-30T12:37:32;24.19;99.99
13496;DHT22;6820;49.374;8.452;2023-08-30T12:41:33;24.14;99.99
13496;DHT22;6820;49.374;8.452;2023-08-30T12:45:35;24.19;99.99
13496;DHT22;6820;49.374;8.452;2023-08-30T12:49:36;23.99;99.99
13496;DHT22;6820;49.374;8.452;2023-08-30T12:53:38;24.02;99.99
13496;DHT22;6820;49.374;8.452;2023-08-30T12:57:40;24.15;99.99
13496;DHT22;6820;49.374;8.452;2023-08-30T13:01:41;23.99;99.99
13496;DHT22;6820;49.374;8.452;2023-08-30T13:05:43;23.96;99.99
13496;DHT22;6820;49.374;8.452;2023-08-30T13:09:45;24.12;99.99
13496;DHT22;6820;49.374;8.452;2023-08-30T13:13:47;24.53;99.99
13496;DHT22;6820;49.374;8.452;2023-08-30T13:17:48;24.51;99.99
13496;DHT22;6820;49.374;8.452;2023-08-30T13:21:50;24.34;99.99
13496;DHT22;6820;49.374;8.452;2023-08-30T13:25:52;24.11;99.99
13496;DHT22;6820;49.374;8.452;2023-08-30T13:29:53;24.36;99.99
13496;DHT22;6820;49.374;8.452;2023-08-30T13:33:55;24.74;99.99
13496;DHT22;6820;49.374;8.452;2023-08-30T13:37:57;25.02;99.99
13496;DHT22;6820;49.374;8.452;2023-08-30T13:41:58;25.19;99.99
13496;DHT22;6820;49.374;8.452;2023-08-30T13:46:00;25.08;99.99
13496;DHT22;6820;49.374;8.452;2023-08-30T13:50:03;24.68;99.99
13496;DHT22;6820;49.374;8.452;2023-08-30T13:54:05;24.31;99.99
13496;DHT22;6820;49.374;8.452;2023-08-30T13:58:07;24.37;99.99
13496;DHT22;6820;49.374;8.452;2023-08-30T14:02:08;24.82;99.99
13496;DHT22;6820;49.374;8.452;2023-08-30T14:06:10;24.90;99.99
13496;DHT22;6820;49.374;8.452;2023-08-30T14:10:13;25.22;99.99
13496;DHT22;6820;49.374;8.452;2023-08-30T14:14:21;25.38;99.99
13496;DHT22;6820;49.374;8.452;2023-08-30T14:18:23;25.72;99.99
13496;DHT22;6820;49.374;8.452;2023-08-30T14:22:25;25.49;99.99
13496;DHT22;6820;49.374;8.452;2023-08-30T14:26:27;25.20;99.99
13496;DHT22;6820;49.374;8.452;2023-08-30T14:30:29;24.90;99.99
13496;DHT22;6820;49.374;8.452;2023-08-30T14:34:31;24.98;99.99
13496;DHT22;6820;49.374;8.452;2023-08-30T14:38:33;25.19;99.99
13496;DHT22;6820;49.374;8.452;2023-08-30T14:42:34;25.56;99.99
13496;DHT22;6820;49.374;8.452;2023-08-30T14:46:36;25.64;99.99
13496;DHT22;6820;49.374;8.452;2023-08-30T14:50:38;25.67;99.99
13496;DHT22;6820;49.374;8.452;2023-08-30T14:54:40;25.79;99.99
13496;DHT22;6820;49.374;8.452;2023-08-30T14:58:42;25.98;99.99
13496;DHT22;6820;49.374;8.452;2023-08-30T15:02:46;25.83;99.99
13496;DHT22;6820;49.374;8.452;2023-08-30T15:06:48;25.64;99.99
13496;DHT22;6820;49.374;8.452;2023-08-30T15:10:50;25.63;99.99
13496;DHT22;6820;49.374;8.452;2023-08-30T15:14:55;25.76;99.99
13496;DHT22;6820;49.374;8.452;2023-08-30T15:18:56;25.89;99.99
13496;DHT22;6820;49.374;8.452;2023-08-30T15:22:58;25.78;99.99
13496;DHT22;6820;49.374;8.452;2023-08-30T15:27:02;25.67;99.99
13496;DHT22;6820;49.374;8.452;2023-08-30T15:31:03;25.72;99.99
13496;DHT22;6820;49.374;8.452;2023-08-30T15:35:08;25.76;99.99
13496;DHT22;6820;49.374;8.452;2023-08-30T15:39:14;25.98;99.99
13496;DHT22;6820;49.374;8.452;2023-08-30T15:43:18;26.06;99.99
13496;DHT22;6820;49.374;8.452;2023-08-30T15:47:20;26.08;99.99
13496;DHT22;6820;49.374;8.452;2023-08-30T15:51:22;25.97;99.99
13496;DHT22;6820;49.374;8.452;2023-08-30T15:55:25;25.59;99.99
13496;DHT22;6820;49.374;8.452;2023-08-30T15:59:30;25.01;99.99
13496;DHT22;6820;49.374;8.452;2023-08-30T16:03:31;24.59;99.99
13496;DHT22;6820;49.374;8.452;2023-08-30T16:07:35;24.36;99.99
13496;DHT22;6820;49.374;8.452;2023-08-30T16:11:37;24.19;99.99
13496;DHT22;6820;49.374;8.452;2023-08-30T16:15:39;24.04;99.99
13496;DHT22;6820;49.374;8.452;2023-08-30T16:19:41;24.02;99.99
13496;DHT22;6820;49.374;8.452;2023-08-30T16:23:42;24.18;99.99
13496;DHT22;6820;49.374;8.452;2023-08-30T16:27:44;24.15;99.99
13496;DHT22;6820;49.374;8.452;2023-08-30T16:31:46;24.12;99.99
13496;DHT22;6820;49.374;8.452;2023-08-30T16:35:50;24.00;99.99
13496;DHT22;6820;49.374;8.452;2023-08-30T16:39:53;23.79;99.99
13496;DHT22;6820;49.374;8.452;2023-08-30T16:43:54;23.62;99.99
13496;DHT22;6820;49.374;8.452;2023-08-30T16:47:56;23.49;99.99
13496;DHT22;6820;49.374;8.452;2023-08-30T16:52:07;23.37;99.99
13496;DHT22;6820;49.374;8.452;2023-08-30T16:56:11;23.19;99.99
13496;DHT22;6820;49.374;8.452;2023-08-30T17:00:13;23.03;99.99
13496;DHT22;6820;49.374;8.452;2023-08-30T17:04:15;22.94;99.99
13496;DHT22;6820;49.374;8.452;2023-08-30T17:08:17;22.85;99.99
13496;DHT22;6820;49.374;8.452;2023-08-30T17:12:18;22.76;99.99
13496;DHT22;6820;49.374;8.452;2023-08-30T17:16:20;22.75;99.99
13496;DHT22;6820;49.374;8.452;2023-08-30T17:20:22;22.82;99.99
13496;DHT22;6820;49.374;8.452;2023-08-30T17:24:23;22.88;99.99
13496;DHT22;6820;49.374;8.452;2023-08-30T17:28:25;22.75;99.99
13496;DHT22;6820;49.374;8.452;2023-08-30T17:32:27;22.63;99.99
13496;DHT22;6820;49.374;8.452;2023-08-30T17:36:28;22.48;99.99
13496;DHT22;6820;49.374;8.452;2023-08-30T17:40:36;22.44;99.99
13496;DHT22;6820;49.374;8.452;2023-08-30T17:44:38;22.39;99.99
13496;DHT22;6820;49.374;8.452;2023-08-30T17:48:50;22.30;99.99
13496;DHT22;6820;49.374;8.452;2023-08-30T17:52:52;22.21;99.99
13496;DHT22;6820;49.374;8.452;2023-08-30T17:56:54;22.15;99.99
13496;DHT22;6820;49.374;8.452;2023-08-30T18:00:56;22.09;99.99
13496;DHT22;6820;49.374;8.452;2023-08-30T18:05:01;22.05;99.99
13496;DHT22;6820;49.374;8.452;2023-08-30T18:09:07;21.81;99.99
13496;DHT22;6820;49.374;8.452;2023-08-30T18:13:16;21.51;99.99
13496;DHT22;6820;49.374;8.452;2023-08-30T18:17:20;20.97;99.99
13496;DHT22;6820;49.374;8.452;2023-08-30T18:21:22;20.12;99.99
13496;DHT22;6820;49.374;8.452;2023-08-30T18:25:24;19.32;99.99
13496;DHT22;6820;49.374;8.452;2023-08-30T18:29:25;18.94;99.99
13496;DHT22;6820;49.374;8.452;2023-08-30T18:33:29;18.72;99.99
13496;DHT22;6820;49.374;8.452;2023-08-30T18:37:31;18.74;99.99
13496;DHT22;6820;49.374;8.452;2023-08-30T18:41:34;18.76;99.99
13496;DHT22;6820;49.374;8.452;2023-08-30T18:45:42;18.66;99.99
13496;DHT22;6820;49.374;8.452;2023-08-30T18:49:45;18.74;99.99
13496;DHT22;6820;49.374;8.452;2023-08-30T18:53:47;18.74;99.99
13496;DHT22;6820;49.374;8.452;2023-08-30T18:57:49;18.79;99.99
13496;DHT22;6820;49.374;8.452;2023-08-30T19:01:51;18.82;99.99
13496;DHT22;6820;49.374;8.452;2023-08-30T19:05:53;18.78;99.99
13496;DHT22;6820;49.374;8.452;2023-08-30T19:09:54;18.78;99.99
13496;DHT22;6820;49.374;8.452;2023-08-30T19:13:56;18.90;99.99
13496;DHT22;6820;49.374;8.452;2023-08-30T19:17:58;18.99;99.99
13496;DHT22;6820;49.374;8.452;2023-08-30T19:22:00;19.06;99.99
13496;DHT22;6820;49.374;8.452;2023-08-30T19:26:01;19.07;99.99
13496;DHT22;6820;49.374;8.452;2023-08-30T19:30:09;19.12;99.99
13496;DHT22;6820;49.374;8.452;2023-08-30T19:34:11;19.09;99.99
13496;DHT22;6820;49.374;8.452;2023-08-30T19:38:13;19.12;99.99
13496;DHT22;6820;49.374;8.452;2023-08-30T19:42:15;19.13;99.99
13496;DHT22;6820;49.374;8.452;2023-08-30T19:46:21;19.20;99.99
13496;DHT22;6820;49.374;8.452;2023-08-30T19:50:24;19.21;99.99
13496;DHT22;6820;49.374;8.452;2023-08-30T19:54:26;19.15;99.99
13496;DHT22;6820;49.374;8.452;2023-08-30T19:58:27;19.01;99.99
13496;DHT22;6820;49.374;8.452;2023-08-30T20:02:29;19.01;99.99
13496;DHT22;6820;49.374;8.452;2023-08-30T20:06:31;18.94;99.99
13496;DHT22;6820;49.374;8.452;2023-08-30T20:10:32;19.07;99.99
13496;DHT22;6820;49.374;8.452;2023-08-30T20:14:34;19.06;99.99
13496;DHT22;6820;49.374;8.452;2023-08-30T20:18:36;18.97;99.99
13496;DHT22;6820;49.374;8.452;2023-08-30T20:22:38;18.99;99.99
13496;DHT22;6820;49.374;8.452;2023-08-30T20:26:45;18.96;99.99
13496;DHT22;6820;49.374;8.452;2023-08-30T20:30:48;18.51;99.99
13496;DHT22;6820;49.374;8.452;2023-08-30T20:34:51;18.02;99.99
13496;DHT22;6820;49.374;8.452;2023-08-30T20:38:52;17.74;99.99
13496;DHT22;6820;49.374;8.452;2023-08-30T20:42:54;17.74;99.99
13496;DHT22;6820;49.374;8.452;2023-08-30T20:46:56;17.71;99.99
13496;DHT22;6820;49.374;8.452;2023-08-30T20:50:58;17.79;99.99
13496;DHT22;6820;49.374;8.452;2023-08-30T20:55:00;17.86;99.99
13496;DHT22;6820;49.374;8.452;2023-08-30T20:59:06;17.95;99.99
13496;DHT22;6820;49.374;8.452;2023-08-30T21:03:07;17.89;99.99
13496;DHT22;6820;49.374;8.452;2023-08-30T21:07:09;17.94;99.99
13496;DHT22;6820;49.374;8.452;2023-08-30T21:11:11;17.86;99.99
13496;DHT22;6820;49.374;8.452;2023-08-30T21:15:13;17.86;99.99
13496;DHT22;6820;49.374;8.452;2023-08-30T21:19:14;17.86;99.99
13496;DHT22;6820;49.374;8.452;2023-08-30T21:23:16;17.94;99.99
13496;DHT22;6820;49.374;8.452;2023-08-30T21:27:18;18.01;99.99
13496;DHT22;6820;49.374;8.452;2023-08-30T21:31:19;18.07;99.99
13496;DHT22;6820;49.374;8.452;2023-08-30T21:35:21;18.13;99.99
13496;DHT22;6820;49.374;8.452;2023-08-30T21:39:23;18.14;99.99
13496;DHT22;6820;49.374;8.452;2023-08-30T21:43:24;18.17;99.99
13496;DHT22;6820;49.374;8.452;2023-08-30T21:47:26;18.10;99.99
13496;DHT22;6820;49.374;8.452;2023-08-30T21:51:27;18.04;99.99
13496;DHT22;6820;49.374;8.452;2023-08-30T21:55:35;17.99;99.99
13496;DHT22;6820;49.374;8.452;2023-08-30T21:59:37;17.89;99.99
13496;DHT22;6820;49.374;8.452;2023-08-30T22:03:39;17.80;99.99
13496;DHT22;6820;49.374;8.452;2023-08-30T22:07:41;17.77;99.99
13496;DHT22;6820;49.374;8.452;2023-08-30T22:11:43;17.70;99.99
13496;DHT22;6820;49.374;8.452;2023-08-30T22:15:45;17.71;99.99
13496;DHT22;6820;49.374;8.452;2023-08-30T22:19:47;17.77;99.99
13496;DHT22;6820;49.374;8.452;2023-08-30T22:23:49;17.77;99.99
13496;DHT22;6820;49.374;8.452;2023-08-30T22:27:50;17.79;99.99
13496;DHT22;6820;49.374;8.452;2023-08-30T22:31:52;17.83;99.99
13496;DHT22;6820;49.374;8.452;2023-08-30T22:35:55;17.81;99.99
13496;DHT22;6820;49.374;8.452;2023-08-30T22:39:57;17.80;99.99
13496;DHT22;6820;49.374;8.452;2023-08-30T22:44:00;17.84;99.99
13496;DHT22;6820;49.374;8.452;2023-08-30T22:48:01;17.84;99.99
13496;DHT22;6820;49.374;8.452;2023-08-30T22:52:04;17.80;99.99
13496;DHT22;6820;49.374;8.452;2023-08-30T22:56:06;17.80;99.99
13496;DHT22;6820;49.374;8.452;2023-08-30T23:00:10;17.74;99.99
13496;DHT22;6820;49.374;8.452;2023-08-30T23:04:12;17.70;99.99
13496;DHT22;6820;49.374;8.452;2023-08-30T23:08:13;17.55;99.99
13496;DHT22;6820;49.374;8.452;2023-08-30T23:12:15;17.47;99.99
13496;DHT22;6820;49.374;8.452;2023-08-30T23:16:17;17.45;99.99
13496;DHT22;6820;49.374;8.452;2023-08-30T23:20:19;17.43;99.99
13496;DHT22;6820;49.374;8.452;2023-08-30T23:24:21;17.38;99.99
13496;DHT22;6820;49.374;8.452;2023-08-30T23:28:23;17.32;99.99
13496;DHT22;6820;49.374;8.452;2023-08-30T23:32:24;17.28;99.99
13496;DHT22;6820;49.374;8.452;2023-08-30T23:36:28;17.27;99.99
13496;DHT22;6820;49.374;8.452;2023-08-30T23:40:30;17.21;99.99
13496;DHT22;6820;49.374;8.452;2023-08-30T23:44:33;17.15;99.99
13496;DHT22;6820;49.374;8.452;2023-08-30T23:48:35;17.05;99.99
13496;DHT22;6820;49.374;8.452;2023-08-30T23:52:36;17.00;99.99
13496;DHT22;6820;49.374;8.452;2023-08-30T23:56:38;17.02;99.99
